Time;durP1;ratioP1;P1;durP2;ratioP2;P2;SDS_P1;SDS_P2;PMS_P1;PMS_P2;Temp;Humidity;BMP_temperature;BMP_pressure;BME280_temperature;BME280_humidity;BME280_pressure;Samples;Min_cycle;Max_cycle;Signal;HPM_P1;HPM_P2
2022/04/03 00:02:07;;;;;;;5.57;4.05;;;;;;;-0.09;78.56;100753.09;5046732;28;20159;-73
2022/04/03 00:04:33;;;;;;;7.47;5.45;;;;;;;-0.09;78.90;100759.13;5047687;28;20163;-73
2022/04/03 00:06:59;;;;;;;6.28;4.65;;;;;;;-0.10;78.61;100759.19;5047750;28;20243;-73
2022/04/03 00:09:25;;;;;;;8.02;5.82;;;;;;;-0.12;78.59;100761.88;5047675;28;20064;-73
2022/04/03 00:11:50;;;;;;;8.18;4.93;;;;;;;-0.14;78.66;100761.13;5045344;28;20060;-73
2022/04/03 00:14:16;;;;;;;6.78;5.00;;;;;;;-0.15;78.61;100763.78;5028990;28;20128;-74
2022/04/03 00:16:41;;;;;;;9.52;6.25;;;;;;;-0.16;78.80;100762.94;5043382;28;20048;-73
2022/04/03 00:19:08;;;;;;;6.90;5.18;;;;;;;-0.16;78.74;100752.56;5050179;28;20053;-73
2022/04/03 00:21:36;;;;;;;8.93;5.13;;;;;;;-0.11;78.97;100763.56;5048143;28;20033;-74
2022/04/03 00:24:03;;;;;;;6.07;4.60;;;;;;;-0.08;78.63;100754.75;5031283;28;20124;-73
2022/04/03 00:26:30;;;;;;;6.05;4.70;;;;;;;-0.10;78.90;100760.03;5029196;28;20041;-73
2022/04/03 00:28:56;;;;;;;5.40;3.70;;;;;;;-0.10;78.79;100765.22;5046232;28;20094;-73
2022/04/03 00:31:23;;;;;;;5.07;4.03;;;;;;;-0.13;78.76;100768.00;5046901;28;20041;-74
2022/04/03 00:33:49;;;;;;;5.10;3.70;;;;;;;-0.11;78.60;100766.16;5029632;28;20036;-73
2022/04/03 00:36:15;;;;;;;5.28;3.92;;;;;;;-0.09;78.39;100764.31;5046950;28;20558;-73
2022/04/03 00:38:45;;;;;;;5.75;4.30;;;;;;;-0.08;78.58;100766.00;5040263;28;20048;-74
2022/04/03 00:41:13;;;;;;;8.57;5.13;;;;;;;-0.10;78.94;100770.41;5049415;28;20044;-73
2022/04/03 00:43:39;;;;;;;6.95;4.90;;;;;;;-0.09;79.23;100766.09;5031580;28;20390;-73
2022/04/03 00:46:07;;;;;;;6.93;4.75;;;;;;;-0.10;78.98;100769.59;5033795;28;20025;-73
2022/04/03 00:48:33;;;;;;;5.40;4.15;;;;;;;-0.09;78.96;100766.09;5050744;28;20060;-73
2022/04/03 00:50:59;;;;;;;6.43;3.90;;;;;;;-0.05;78.93;100773.66;5046035;28;20110;-73
2022/04/03 00:53:25;;;;;;;7.25;4.70;;;;;;;0.00;78.89;100776.03;5044708;28;20485;-73
2022/04/03 00:55:51;;;;;;;6.20;4.50;;;;;;;0.06;78.83;100783.50;5051376;28;20037;-73
2022/04/03 00:58:18;;;;;;;7.80;4.90;;;;;;;0.10;78.76;100779.00;5051894;28;20072;-73
2022/04/03 01:00:44;;;;;;;7.10;4.75;;;;;;;0.17;78.74;100782.97;5051067;28;20056;-73
2022/04/03 01:03:10;;;;;;;7.38;4.38;;;;;;;0.22;78.46;100775.75;5050730;28;20083;-73
2022/04/03 01:05:36;;;;;;;5.88;3.88;;;;;;;0.27;78.38;100775.53;5032905;28;20415;-73
2022/04/03 01:08:03;;;;;;;5.70;4.32;;;;;;;0.31;78.33;100777.88;5032525;28;20052;-73
2022/04/03 01:10:29;;;;;;;4.95;3.70;;;;;;;0.36;78.07;100781.09;5032566;28;20033;-73
2022/04/03 01:12:55;;;;;;;5.40;4.15;;;;;;;0.39;78.21;100780.91;5049981;28;20048;-73
2022/04/03 01:15:21;;;;;;;6.15;3.83;;;;;;;0.41;78.00;100778.25;5032437;28;20071;-73
2022/04/03 01:17:47;;;;;;;5.60;4.30;;;;;;;0.44;77.81;100780.66;5033760;28;20074;-73
2022/04/03 01:20:13;;;;;;;5.47;4.15;;;;;;;0.47;77.73;100775.28;5031765;28;20041;-73
2022/04/03 01:22:39;;;;;;;5.30;4.07;;;;;;;0.50;77.56;100779.50;5032222;28;20045;-74
2022/04/03 01:25:08;;;;;;;6.05;4.10;;;;;;;0.53;77.54;100776.75;5033028;28;20052;-73
2022/04/03 01:27:33;;;;;;;5.90;3.83;;;;;;;0.55;77.31;100775.75;5031273;28;20037;-74
2022/04/03 01:29:59;;;;;;;5.57;3.85;;;;;;;0.57;77.48;100775.66;5032489;28;20029;-74
2022/04/03 01:32:29;;;;;;;5.40;3.97;;;;;;;0.59;77.34;100779.84;5049974;28;20044;-73
2022/04/03 01:34:58;;;;;;;6.97;4.68;;;;;;;0.57;77.20;100778.25;5027757;28;20059;-73
2022/04/03 01:37:24;;;;;;;6.13;4.68;;;;;;;0.60;77.22;100780.72;5050458;28;20048;-74
2022/04/03 01:39:50;;;;;;;5.85;4.15;;;;;;;0.61;76.98;100783.22;5049844;28;20072;-73
2022/04/03 01:42:16;;;;;;;4.93;3.88;;;;;;;0.61;77.35;100779.78;5049721;28;20095;-73
2022/04/03 01:44:42;;;;;;;6.05;4.63;;;;;;;0.61;77.00;100779.78;5049776;28;20060;-73
2022/04/03 01:47:08;;;;;;;7.18;4.53;;;;;;;0.62;76.83;100778.84;5032192;28;20044;-73
2022/04/03 01:49:35;;;;;;;5.65;4.20;;;;;;;0.63;76.69;100783.97;5031919;28;20036;-73
2022/04/03 01:52:03;;;;;;;7.28;4.68;;;;;;;0.64;76.84;100779.59;5042886;28;20410;-73
2022/04/03 01:54:29;;;;;;;7.30;4.90;;;;;;;0.58;77.38;100778.19;5031638;28;20041;-73
2022/04/03 01:56:56;;;;;;;5.60;4.25;;;;;;;0.67;76.96;100779.47;5027192;28;20037;-74
2022/04/03 01:59:22;;;;;;;6.05;4.07;;;;;;;0.69;77.02;100775.03;5044141;28;20536;-73
2022/04/03 02:01:48;;;;;;;5.82;4.38;;;;;;;0.72;76.89;100784.44;5030861;28;20413;-73
2022/04/03 02:04:15;;;;;;;4.85;3.95;;;;;;;0.76;76.71;100780.72;5031515;28;20485;-74
2022/04/03 02:06:41;;;;;;;5.28;3.47;;;;;;;0.80;76.66;100779.63;5049462;28;20493;-74
2022/04/03 02:09:08;;;;;;;4.40;3.33;;;;;;;0.82;76.58;100783.81;5049483;28;20501;-73
2022/04/03 02:11:36;;;;;;;5.13;3.25;;;;;;;0.81;76.84;100783.91;5031101;28;20044;-73
2022/04/03 02:14:05;;;;;;;7.03;3.90;;;;;;;0.84;76.66;100783.75;5048112;28;20044;-73
2022/04/03 02:16:31;;;;;;;5.13;3.88;;;;;;;0.86;76.74;100787.13;5029404;28;20075;-73
2022/04/03 02:18:57;;;;;;;5.45;3.88;;;;;;;0.88;76.68;100792.22;5029596;28;20025;-73
2022/04/03 02:21:23;;;;;;;4.97;3.58;;;;;;;0.91;76.53;100792.91;5048365;28;20035;-73
2022/04/03 02:23:51;;;;;;;6.03;3.95;;;;;;;0.92;76.52;100793.75;5049546;28;20037;-73
2022/04/03 02:26:18;;;;;;;5.30;4.15;;;;;;;0.93;76.62;100793.69;5030577;28;20044;-73
2022/04/03 02:28:44;;;;;;;8.65;4.78;;;;;;;0.92;76.49;100796.34;5048944;28;20129;-73
2022/04/03 02:31:10;;;;;;;6.07;4.20;;;;;;;0.93;76.10;100798.03;5031346;28;20666;-73
2022/04/03 02:33:37;;;;;;;4.95;3.63;;;;;;;0.98;75.97;100802.06;5049325;28;20424;-73
2022/04/03 02:36:03;;;;;;;7.40;4.00;;;;;;;1.02;76.13;100800.13;5045951;28;20098;-73
2022/04/03 02:38:29;;;;;;;5.65;3.72;;;;;;;1.01;76.02;100796.69;5048995;28;20132;-73
2022/04/03 02:40:59;;;;;;;5.45;4.05;;;;;;;1.01;75.80;100799.28;5044264;28;20052;-73
2022/04/03 02:43:25;;;;;;;6.45;4.38;;;;;;;1.03;75.86;100796.63;5031263;28;20059;-73
2022/04/03 02:45:51;;;;;;;4.95;3.88;;;;;;;1.05;75.89;100794.78;5047429;28;20071;-73
2022/04/03 02:48:22;;;;;;;4.82;3.85;;;;;;;1.04;75.93;100800.88;5025622;28;20177;-73
2022/04/03 02:50:47;;;;;;;5.07;3.83;;;;;;;1.00;75.59;100800.22;5041821;28;20037;-73
2022/04/03 02:53:13;;;;;;;6.18;4.15;;;;;;;1.00;75.79;100804.56;5030859;28;20517;-73
2022/04/03 02:55:39;;;;;;;7.10;4.55;;;;;;;1.00;75.69;100801.97;5047523;28;20567;-73
2022/04/03 02:58:05;;;;;;;6.07;4.20;;;;;;;1.00;75.49;100801.97;5028985;28;20029;-73
2022/04/03 03:00:33;;;;;;;5.60;4.07;;;;;;;1.02;75.34;100795.75;5048122;28;20044;-73
2022/04/03 03:03:00;;;;;;;6.20;4.30;;;;;;;1.03;75.36;100804.44;5024882;28;20032;-73
2022/04/03 03:05:27;;;;;;;5.57;4.25;;;;;;;1.02;75.38;100802.72;5030168;28;20064;-73
2022/04/03 03:07:54;;;;;;;6.15;3.88;;;;;;;1.01;75.43;100807.09;5042070;28;20037;-73
2022/04/03 03:10:21;;;;;;;4.93;3.80;;;;;;;1.01;75.38;100808.88;5048582;28;20135;-73
2022/04/03 03:12:47;;;;;;;5.95;4.03;;;;;;;0.96;75.27;100805.69;5035337;28;20498;-73
2022/04/03 03:15:13;;;;;;;5.60;3.83;;;;;;;0.99;75.13;100806.34;5045311;28;20044;-73
2022/04/03 03:17:38;;;;;;;7.85;4.65;;;;;;;1.00;75.01;100807.19;5047911;28;20040;-73
2022/04/03 03:20:05;;;;;;;6.13;3.95;;;;;;;0.98;75.15;100802.06;5040617;28;20044;-73
2022/04/03 03:22:31;;;;;;;7.32;4.40;;;;;;;0.95;75.20;100811.78;5047252;28;20037;-73
2022/04/03 03:24:56;;;;;;;5.93;4.25;;;;;;;0.94;74.89;100804.94;5048575;28;20037;-73
2022/04/03 03:27:22;;;;;;;5.43;4.07;;;;;;;0.95;75.15;100814.41;5048565;28;20025;-73
2022/04/03 03:29:47;;;;;;;5.43;3.85;;;;;;;0.92;75.20;100811.97;5047353;28;20432;-73
2022/04/03 03:32:13;;;;;;;5.70;4.38;;;;;;;0.89;75.17;100815.59;5030254;28;20426;-73
2022/04/03 03:34:38;;;;;;;5.30;3.80;;;;;;;0.89;75.35;100809.53;5047084;28;20090;-73
2022/04/03 03:37:03;;;;;;;6.20;3.95;;;;;;;0.87;75.20;100820.03;5030375;28;20124;-73
2022/04/03 03:39:29;;;;;;;6.25;4.07;;;;;;;0.86;75.28;100820.97;5038675;28;20026;-73
2022/04/03 03:41:55;;;;;;;5.10;3.80;;;;;;;0.84;75.28;100812.41;5048144;28;20032;-73
2022/04/03 03:44:23;;;;;;;6.13;3.90;;;;;;;0.82;75.35;100817.66;5029460;28;20036;-73
2022/04/03 03:46:49;;;;;;;4.60;3.60;;;;;;;0.79;75.25;100825.66;5047254;28;20079;-73
2022/04/03 03:49:14;;;;;;;5.35;3.67;;;;;;;0.78;75.37;100826.56;5029983;28;20029;-73
2022/04/03 03:51:41;;;;;;;5.53;4.15;;;;;;;0.75;75.86;100829.34;5026846;28;20506;-73
2022/04/03 03:54:06;;;;;;;6.00;3.95;;;;;;;0.74;75.87;100824.19;5046020;28;20036;-73
2022/04/03 03:56:33;;;;;;;5.38;3.47;;;;;;;0.72;75.80;100815.66;5047766;28;20048;-73
2022/04/03 03:58:58;;;;;;;5.50;4.32;;;;;;;0.70;75.92;100825.31;5046901;28;20444;-73
2022/04/03 04:01:24;;;;;;;8.80;4.25;;;;;;;0.68;76.04;100829.75;5041976;28;20115;-73
2022/04/03 04:03:49;;;;;;;6.13;4.47;;;;;;;0.63;76.55;100837.78;5047553;28;20036;-73
2022/04/03 04:06:15;;;;;;;6.70;4.70;;;;;;;0.60;76.70;100832.75;5046197;28;20070;-73
2022/04/03 04:08:41;;;;;;;7.72;4.85;;;;;;;0.55;76.85;100842.53;5025983;28;20037;-73
2022/04/03 04:11:07;;;;;;;6.95;4.88;;;;;;;0.52;77.12;100834.91;5042175;28;20037;-73
2022/04/03 04:13:32;;;;;;;6.75;4.78;;;;;;;0.51;77.24;100835.84;5048658;28;20055;-73
2022/04/03 04:15:58;;;;;;;6.45;4.88;;;;;;;0.49;77.21;100838.50;5052497;28;20453;-73
2022/04/03 04:18:23;;;;;;;5.97;4.45;;;;;;;0.51;77.05;100843.63;5056047;28;20554;-73
2022/04/03 04:20:50;;;;;;;5.95;4.15;;;;;;;0.51;77.07;100844.47;5035346;28;20040;-73
2022/04/03 04:23:16;;;;;;;5.65;3.95;;;;;;;0.50;77.33;100848.00;5051289;28;20485;-73
2022/04/03 04:25:41;;;;;;;5.25;4.00;;;;;;;0.50;77.16;100852.34;5052142;28;20037;-73
2022/04/03 04:28:07;;;;;;;6.68;4.55;;;;;;;0.47;77.33;100848.16;5047217;28;20474;-73
2022/04/03 04:30:33;;;;;;;5.13;4.03;;;;;;;0.43;77.19;100846.66;5042354;28;20047;-73
2022/04/03 04:32:58;;;;;;;4.93;3.63;;;;;;;0.39;77.22;100850.31;5033797;28;20053;-73
2022/04/03 04:35:23;;;;;;;6.03;4.18;;;;;;;0.33;77.22;100859.25;5032292;28;20481;-73
2022/04/03 04:37:51;;;;;;;5.50;3.97;;;;;;;0.24;77.37;100858.88;5044825;28;20544;-73
2022/04/03 04:40:17;;;;;;;4.97;3.50;;;;;;;0.15;77.58;100862.81;5046527;28;20037;-73
2022/04/03 04:42:43;;;;;;;6.93;5.35;;;;;;;0.01;78.87;100860.03;5031747;28;20029;-73
2022/04/03 04:45:09;;;;;;;6.57;5.00;;;;;;;0.01;78.56;100868.69;5031905;28;20044;-73
2022/04/03 04:47:36;;;;;;;6.43;4.13;;;;;;;-0.01;78.22;100873.09;5030626;28;20056;-73
2022/04/03 04:50:06;;;;;;;4.63;3.70;;;;;;;-0.10;78.27;100869.19;5051061;28;20037;-73
2022/04/03 04:52:31;;;;;;;6.65;3.78;;;;;;;-0.18;78.33;100867.91;5044595;28;20061;-73
2022/04/03 04:54:56;;;;;;;6.72;4.55;;;;;;;-0.26;78.82;100876.09;5032953;28;20524;-73
2022/04/03 04:57:21;;;;;;;5.72;4.20;;;;;;;-0.32;78.84;100878.97;5032840;28;20405;-73
2022/04/03 04:59:47;;;;;;;6.22;4.43;;;;;;;-0.40;78.85;100887.13;5033347;28;20072;-73
2022/04/03 05:02:12;;;;;;;5.60;3.95;;;;;;;-0.45;78.68;100881.31;5043135;28;20032;-73
2022/04/03 05:04:37;;;;;;;5.60;3.83;;;;;;;-0.49;79.08;100880.59;5033300;28;20069;-73
2022/04/03 05:07:03;;;;;;;7.45;4.75;;;;;;;-0.54;79.25;100881.75;5050629;28;20440;-73
2022/04/03 05:09:30;;;;;;;5.80;4.32;;;;;;;-0.57;79.23;100884.47;5032525;28;20033;-73
2022/04/03 05:11:55;;;;;;;7.85;5.03;;;;;;;-0.62;79.71;100891.63;5042533;28;20068;-72
2022/04/03 05:14:20;;;;;;;7.15;4.65;;;;;;;-0.67;79.70;100884.91;5050642;28;20425;-73
2022/04/03 05:16:46;;;;;;;8.18;5.00;;;;;;;-0.68;79.64;100892.75;5050755;28;20041;-73
2022/04/03 05:19:12;;;;;;;7.30;4.60;;;;;;;-0.65;79.44;100898.63;5053708;28;20520;-73
2022/04/03 05:21:38;;;;;;;6.32;4.15;;;;;;;-0.63;79.38;100900.34;5050865;28;20075;-73
2022/04/03 05:24:03;;;;;;;5.40;4.00;;;;;;;-0.65;79.64;100898.63;5050113;28;20037;-73
2022/04/03 05:26:29;;;;;;;6.55;4.35;;;;;;;-0.64;79.82;100902.09;5041733;28;20037;-73
2022/04/03 05:28:55;;;;;;;9.10;5.13;;;;;;;-0.65;80.01;100906.44;5050087;28;20040;-73
2022/04/03 05:31:20;;;;;;;7.13;4.63;;;;;;;-0.62;79.90;100908.06;5050179;28;20044;-73
2022/04/03 05:33:45;;;;;;;6.75;5.05;;;;;;;-0.58;80.04;100906.16;5050023;28;20509;-73
2022/04/03 05:36:11;;;;;;;6.75;4.70;;;;;;;-0.54;79.88;100918.09;5025148;28;20502;-73
2022/04/03 05:38:36;;;;;;;9.27;5.57;;;;;;;-0.55;79.97;100914.66;5049693;28;20043;-73
2022/04/03 05:41:02;;;;;;;8.50;5.75;;;;;;;-0.52;79.97;100924.06;5044078;28;20405;-73
2022/04/03 05:43:27;;;;;;;9.18;5.97;;;;;;;-0.46;79.70;100928.97;5050405;28;20517;-73
2022/04/03 05:45:52;;;;;;;9.18;5.00;;;;;;;-0.39;79.38;100925.16;5050171;28;20551;-73
2022/04/03 05:48:18;;;;;;;9.75;6.50;;;;;;;-0.29;78.74;100922.97;5048629;28;20037;-73
2022/04/03 05:50:44;;;;;;;8.23;5.97;;;;;;;-0.22;78.13;100920.00;5032317;28;20041;-73
2022/04/03 05:53:10;;;;;;;7.75;5.97;;;;;;;-0.19;77.61;100920.78;5049468;28;20276;-73
2022/04/03 05:55:35;;;;;;;8.48;6.05;;;;;;;-0.08;77.34;100926.31;5049268;28;20044;-73
2022/04/03 05:58:01;;;;;;;8.00;5.70;;;;;;;0.07;76.94;100930.78;5048263;28;20044;-73
2022/04/03 06:00:26;;;;;;;7.55;5.40;;;;;;;0.24;76.56;100937.75;5032093;28;20033;-73
2022/04/03 06:02:57;;;;;;;6.72;5.65;;;;;;;0.48;76.49;100935.69;5049495;28;20780;-73
2022/04/03 06:05:34;;;;;;;7.88;4.85;;;;;;;0.82;77.05;100937.41;5050136;28;20032;-73
2022/04/03 06:08:00;;;;;;;6.20;5.00;;;;;;;1.26;77.29;100933.38;5046216;28;20033;-73
2022/04/03 06:10:26;;;;;;;7.05;4.80;;;;;;;1.58;76.37;100939.47;5031736;28;20580;-73
2022/04/03 06:12:54;;;;;;;6.88;5.05;;;;;;;1.85;74.71;100941.47;5049226;28;20501;-73
2022/04/03 06:15:20;;;;;;;8.43;5.35;;;;;;;2.08;73.51;100945.41;5024029;28;20049;-73
2022/04/03 06:17:50;;;;;;;8.40;5.60;;;;;;;2.24;72.22;100951.44;5053308;28;20040;-73
2022/04/03 06:20:17;;;;;;;8.30;5.45;;;;;;;2.41;71.78;100953.09;5049215;28;20270;-74
2022/04/03 06:22:42;;;;;;;7.65;5.55;;;;;;;2.51;70.54;100948.16;5049206;28;20064;-73
2022/04/03 06:25:08;;;;;;;8.82;6.07;;;;;;;2.62;69.34;100952.75;5039622;28;20061;-74
2022/04/03 06:27:34;;;;;;;9.07;5.57;;;;;;;2.72;68.73;100957.34;5031575;28;20106;-74
2022/04/03 06:29:59;;;;;;;8.50;5.55;;;;;;;2.84;68.53;100960.19;5048667;28;20375;-73
2022/04/03 06:32:25;;;;;;;6.60;4.57;;;;;;;2.88;66.74;100956.44;5031129;28;20033;-74
2022/04/03 06:34:50;;;;;;;7.45;5.38;;;;;;;3.11;67.36;100962.88;5049283;28;20417;-74
2022/04/03 06:37:15;;;;;;;8.77;5.45;;;;;;;3.27;66.44;100963.63;5048952;28;20116;-73
2022/04/03 06:39:41;;;;;;;7.13;5.28;;;;;;;3.45;65.98;100955.59;5044174;28;20047;-73
2022/04/03 06:42:07;;;;;;;10.55;5.43;;;;;;;3.73;64.55;100967.78;5043512;28;20147;-73
2022/04/03 06:44:33;;;;;;;7.28;5.28;;;;;;;3.92;64.45;100965.66;5049472;28;20106;-73
2022/04/03 06:46:59;;;;;;;8.00;5.43;;;;;;;3.99;63.42;100964.34;5046946;28;20033;-74
2022/04/03 06:49:25;;;;;;;5.57;4.28;;;;;;;4.25;64.26;100970.50;5047926;28;20033;-74
2022/04/03 06:51:50;;;;;;;7.13;4.88;;;;;;;4.58;62.70;100971.00;5043943;28;20083;-74
2022/04/03 06:54:15;;;;;;;7.07;4.47;;;;;;;4.87;63.91;100976.91;5048752;28;20060;-74
2022/04/03 06:56:41;;;;;;;7.38;4.63;;;;;;;5.01;62.93;100979.44;5020953;28;20393;-74
2022/04/03 06:59:06;;;;;;;5.10;4.00;;;;;;;5.34;63.86;100988.53;5049202;28;20044;-74
2022/04/03 07:01:31;;;;;;;6.53;4.38;;;;;;;5.45;62.37;100985.16;5048238;28;20080;-74
2022/04/03 07:03:56;;;;;;;7.88;5.00;;;;;;;5.62;62.60;100982.19;5048603;28;20513;-74
2022/04/03 07:06:22;;;;;;;6.60;4.90;;;;;;;5.72;61.09;100984.97;5042136;28;20117;-74
2022/04/03 07:08:48;;;;;;;5.63;3.88;;;;;;;6.02;62.22;100984.59;5048433;28;20033;-74
2022/04/03 07:11:14;;;;;;;4.97;3.67;;;;;;;6.46;62.34;100996.28;5036093;28;20033;-74
2022/04/03 07:13:40;;;;;;;5.75;4.00;;;;;;;6.73;60.59;100993.38;5015790;28;20057;-74
2022/04/03 07:16:05;;;;;;;6.30;4.20;;;;;;;6.77;59.75;100999.25;5029051;28;20508;-74
2022/04/03 07:18:31;;;;;;;5.35;3.97;;;;;;;6.96;59.02;101009.19;5057321;28;20497;-74
2022/04/03 07:20:56;;;;;;;7.10;4.75;;;;;;;7.20;59.17;101011.75;5048242;28;20153;-74
2022/04/03 07:23:24;;;;;;;7.50;4.35;;;;;;;7.41;58.98;101007.47;5042973;28;20041;-74
2022/04/03 07:25:49;;;;;;;6.30;4.25;;;;;;;7.72;57.60;101010.31;5045648;28;20429;-74
2022/04/03 07:28:15;;;;;;;5.22;3.97;;;;;;;7.72;56.79;101012.94;5044718;28;20037;-74
2022/04/03 07:30:40;;;;;;;5.32;3.90;;;;;;;7.93;56.08;101007.75;5030301;28;20418;-74
2022/04/03 07:33:05;;;;;;;7.50;4.90;;;;;;;7.76;55.84;101017.00;5044626;28;20056;-74
2022/04/03 07:35:31;;;;;;;7.85;4.82;;;;;;;7.80;56.24;101013.19;5047949;28;20132;-74
2022/04/03 07:37:56;;;;;;;7.07;4.75;;;;;;;8.16;55.93;101019.09;5047823;28;20049;-74
2022/04/03 07:40:22;;;;;;;5.93;3.90;;;;;;;8.13;53.70;101023.75;5044817;28;20048;-75
2022/04/03 07:42:49;;;;;;;4.40;3.40;;;;;;;8.52;54.00;101019.72;5048157;28;20033;-75
2022/04/03 07:45:15;;;;;;;6.90;3.95;;;;;;;8.55;52.92;101024.72;5048637;28;20551;-74
2022/04/03 07:47:49;;;;;;;5.53;4.13;;;;;;;8.26;52.68;101027.91;5030100;28;20597;-74
2022/04/03 07:50:18;;;;;;;5.68;3.88;;;;;;;8.43;51.85;101016.03;5044678;28;20039;-74
2022/04/03 07:52:45;;;;;;;4.10;3.05;;;;;;;8.54;51.80;101025.69;5043569;28;20090;-74
2022/04/03 07:55:10;;;;;;;4.88;3.15;;;;;;;8.97;51.93;101027.41;5048664;28;20505;-74
2022/04/03 07:57:39;;;;;;;5.53;3.60;;;;;;;9.15;50.90;101032.91;5046376;28;20041;-74
2022/04/03 08:00:07;;;;;;;4.13;3.05;;;;;;;9.50;51.05;101034.34;5055690;28;20104;-75
2022/04/03 08:02:35;;;;;;;3.60;2.70;;;;;;;10.10;51.17;101026.47;5047694;28;20064;-75
2022/04/03 08:05:01;;;;;;;4.95;3.40;;;;;;;10.32;48.42;101028.06;5048173;28;20103;-75
2022/04/03 08:07:44;;;;;;;4.00;3.28;;;;;;;10.33;48.36;101042.97;5047939;28;20108;-75
2022/04/03 08:10:12;;;;;;;4.15;3.30;;;;;;;10.38;48.50;101043.38;5029831;28;20124;-75
2022/04/03 08:12:39;;;;;;;4.15;3.42;;;;;;;10.59;47.27;101041.44;5047909;28;20033;-74
2022/04/03 08:15:07;;;;;;;5.90;2.97;;;;;;;11.04;47.07;101045.31;5043491;28;20127;-75
2022/04/03 08:17:32;;;;;;;3.75;2.30;;;;;;;11.64;46.70;101055.59;5051772;28;20047;-75
2022/04/03 08:19:58;;;;;;;4.13;3.00;;;;;;;11.71;45.74;101050.53;5048012;28;20033;-74
2022/04/03 08:22:23;;;;;;;4.47;3.35;;;;;;;11.43;44.67;101046.03;5043707;28;20127;-74
2022/04/03 08:24:50;;;;;;;4.55;3.00;;;;;;;11.51;45.58;101050.59;5046268;28;20037;-74
2022/04/03 08:27:16;;;;;;;4.13;2.60;;;;;;;11.60;43.56;101046.25;5029776;28;20029;-74
2022/04/03 08:29:42;;;;;;;3.00;2.03;;;;;;;11.20;40.88;101045.56;5029877;28;20539;-74
2022/04/03 08:32:07;;;;;;;4.38;2.80;;;;;;;11.07;38.56;101039.72;5047096;28;20033;-74
2022/04/03 08:34:33;;;;;;;5.72;2.60;;;;;;;10.81;38.68;101050.06;5029920;28;20510;-74
2022/04/03 08:36:59;;;;;;;3.60;2.20;;;;;;;11.23;39.34;101050.56;5024936;28;20049;-74
2022/04/03 08:39:24;;;;;;;3.40;2.20;;;;;;;11.99;39.51;101051.38;5048354;28;20033;-74
2022/04/03 08:41:49;;;;;;;4.63;2.70;;;;;;;12.33;38.44;101055.09;5047278;28;20716;-74
2022/04/03 08:44:15;;;;;;;4.65;2.75;;;;;;;12.82;37.03;101054.69;5047497;28;20033;-74
2022/04/03 08:46:45;;;;;;;3.75;2.25;;;;;;;13.06;37.37;101054.06;5044635;28;20087;-74
2022/04/03 08:49:12;;;;;;;3.75;2.47;;;;;;;13.53;36.05;101053.72;5046708;28;20036;-74
2022/04/03 08:51:39;;;;;;;3.33;2.30;;;;;;;14.29;34.35;101053.84;5047172;28;20053;-74
2022/04/03 08:54:05;;;;;;;4.50;2.10;;;;;;;14.80;34.50;101054.56;5047715;28;20470;-74
2022/04/03 08:56:31;;;;;;;4.50;2.30;;;;;;;15.07;32.85;101053.41;5027819;28;20069;-74
2022/04/03 08:58:57;;;;;;;3.92;2.10;;;;;;;14.94;29.46;101047.75;5059981;28;20075;-74
2022/04/03 09:01:23;;;;;;;6.20;2.78;;;;;;;14.37;32.03;101061.81;5052028;28;20540;-74
2022/04/03 09:03:49;;;;;;;5.07;3.20;;;;;;;14.30;33.63;101069.66;5052985;28;20040;-74
2022/04/03 09:06:19;;;;;;;4.30;2.60;;;;;;;13.15;35.59;101065.56;5027953;28;20029;-74
2022/04/03 09:08:46;;;;;;;4.72;3.15;;;;;;;11.58;36.75;101075.53;5053623;28;20037;-74
2022/04/03 09:11:12;;;;;;;3.95;2.63;;;;;;;10.47;38.06;101062.88;5049451;28;20053;-74
2022/04/03 09:13:39;;;;;;;3.42;2.60;;;;;;;9.48;38.30;101074.06;5051211;28;20409;-74
2022/04/03 09:16:05;;;;;;;3.63;2.40;;;;;;;9.02;38.79;101070.06;5047536;28;20037;-73
2022/04/03 09:18:48;;;;;;;3.35;2.20;;;;;;;8.63;39.17;101069.75;5056648;28;20419;-73
2022/04/03 09:21:25;;;;;;;5.20;3.03;;;;;;;8.15;40.30;101071.88;5049247;28;20064;-73
2022/04/03 09:24:01;;;;;;;3.30;2.45;;;;;;;7.64;40.74;101068.00;5050239;28;20414;-73
2022/04/03 09:26:27;;;;;;;3.67;2.38;;;;;;;6.96;39.13;101067.91;5036795;28;20037;-73
2022/04/03 09:29:13;;;;;;;3.10;2.30;;;;;;;6.72;39.81;101075.81;5043570;28;20033;-73
2022/04/03 09:31:39;;;;;;;7.20;4.55;;;;;;;6.32;39.25;101070.84;5063493;28;20498;-73
2022/04/03 09:34:13;;;;;;;12.35;8.35;;;;;;;5.91;39.60;101071.13;5050052;28;20124;-73
2022/04/03 09:36:39;;;;;;;8.68;5.88;;;;;;;5.56;40.19;101061.31;5050936;28;20040;-73
2022/04/03 09:39:10;;;;;;;12.90;9.18;;;;;;;5.36;40.35;101067.09;5047874;28;20116;-73
2022/04/03 09:41:55;;;;;;;;;;;;;;;4.87;41.44;101069.44;5041080;28;20481;-73
2022/04/03 09:44:26;;;;;;;3.40;2.55;;;;;;;5.03;41.26;101064.03;5033619;28;19921;-73
2022/04/03 09:47:11;;;;;;;;;;;;;;;4.95;41.66;101068.09;5042953;28;20038;-73
2022/04/03 09:49:37;;;;;;;18.67;12.38;;;;;;;4.96;41.16;101064.53;5048309;28;19917;-73
2022/04/03 09:52:03;;;;;;;8.98;5.50;;;;;;;5.04;41.57;101070.13;5024699;28;20116;-73
2022/04/03 09:54:28;;;;;;;8.95;5.80;;;;;;;5.17;41.56;101076.19;5039562;28;20556;-73
2022/04/03 09:56:54;;;;;;;6.72;4.15;;;;;;;5.33;41.45;101076.84;5033192;28;20061;-73
2022/04/03 09:59:19;;;;;;;11.23;7.75;;;;;;;5.53;41.44;101082.53;5043892;28;20489;-73
2022/04/03 10:01:44;;;;;;;6.50;4.55;;;;;;;5.83;41.34;101081.34;5042943;28;20537;-73
2022/04/03 10:04:14;;;;;;;4.78;3.08;;;;;;;5.95;40.91;101072.63;5050916;28;20037;-73
2022/04/03 10:06:40;;;;;;;3.78;2.72;;;;;;;5.82;40.01;101072.63;5045858;28;20154;-73
2022/04/03 10:09:10;;;;;;;6.03;4.47;;;;;;;5.77;39.20;101080.00;5029810;28;20029;-73
2022/04/03 10:11:36;;;;;;;9.48;7.25;;;;;;;5.92;38.74;101071.03;5044096;28;20036;-72
2022/04/03 10:14:01;;;;;;;8.35;6.00;;;;;;;8.15;38.88;101074.53;5031985;28;20040;-72
2022/04/03 10:16:26;;;;;;;2.95;2.10;;;;;;;10.31;32.46;101068.69;5026775;28;20064;-72
2022/04/03 10:18:52;;;;;;;9.05;6.53;;;;;;;9.51;34.08;101071.19;5060235;28;20033;-72
2022/04/03 10:21:32;;;;;;;33.80;20.05;;;;;;;8.24;34.42;101079.06;5047009;28;20031;-72
2022/04/03 10:24:13;;;;;;;19.60;14.00;;;;;;;7.61;34.94;101065.59;5045766;28;20316;-72
2022/04/03 10:26:41;;;;;;;6.78;4.75;;;;;;;7.28;35.39;101063.78;5046750;28;20100;-72
2022/04/03 10:29:09;;;;;;;18.13;14.25;;;;;;;6.78;35.02;101062.19;5050073;28;20378;-72
2022/04/03 10:31:37;;;;;;;13.85;10.88;;;;;;;6.24;34.61;101067.06;5032273;28;20068;-72
2022/04/03 10:34:03;;;;;;;12.80;8.73;;;;;;;5.91;34.70;101052.75;5024422;28;20382;-72
2022/04/03 10:36:30;;;;;;;13.68;9.90;;;;;;;5.71;34.49;101064.66;5055640;28;20068;-72
2022/04/03 10:39:02;;;;;;;8.50;5.97;;;;;;;5.77;34.67;101060.75;5039246;28;20044;-72
2022/04/03 10:41:36;;;;;;;5.97;3.72;;;;;;;8.84;33.36;101055.75;5041095;28;20040;-72
2022/04/03 10:44:18;;;;;;;3.35;2.08;;;;;;;11.71;27.07;101054.03;5047025;28;20095;-72
2022/04/03 10:47:01;;;;;;;4.68;3.05;;;;;;;13.21;26.14;101056.16;5066799;28;20036;-72
2022/04/03 10:49:32;;;;;;;10.95;7.68;;;;;;;13.87;23.43;101062.66;5042127;28;20043;-73
2022/04/03 10:52:04;;;;;;;4.05;2.70;;;;;;;15.34;22.38;101057.53;5021480;28;20572;-73
2022/04/03 10:54:30;;;;;;;16.67;10.20;;;;;;;16.63;22.27;101050.09;5056844;28;20052;-73
2022/04/03 10:57:33;;;;;;;9.07;6.03;;;;;;;18.31;21.21;101046.97;5033808;28;20068;-73
2022/04/03 11:00:14;;;;;;;3.28;2.28;;;;;;;18.64;21.09;101049.97;5049697;28;20425;-74
2022/04/03 11:02:41;;;;;;;2.40;1.50;;;;;;;19.20;20.35;101047.34;5046240;28;20059;-74
2022/04/03 11:05:22;;;;;;;2.22;1.45;;;;;;;20.99;18.40;101044.44;5031905;28;20116;-74
2022/04/03 11:07:51;;;;;;;7.15;4.30;;;;;;;21.33;19.42;101049.78;5027370;28;20478;-74
2022/04/03 11:10:46;;;;;;;3.15;2.20;;;;;;;17.96;20.82;101036.88;5047930;28;20084;-74
2022/04/03 11:13:15;;;;;;;2.63;1.60;;;;;;;14.68;22.69;101045.25;5043268;28;20124;-73
2022/04/03 11:16:06;;;;;;;2.10;1.58;;;;;;;12.53;23.27;101044.34;5047681;28;20037;-73
2022/04/03 11:18:36;;;;;;;2.60;1.30;;;;;;;11.03;22.92;101033.88;5029738;28;20404;-72
2022/04/03 11:21:24;;;;;;;2.30;1.40;;;;;;;10.25;23.39;101046.25;5048707;28;20099;-72
2022/04/03 11:24:10;;;;;;;2.58;1.40;;;;;;;11.08;23.78;101038.72;5029492;28;20041;-73
2022/04/03 11:26:36;;;;;;;1.60;1.13;;;;;;;13.54;23.00;101038.63;5039060;28;20049;-73
2022/04/03 11:29:03;;;;;;;2.30;1.60;;;;;;;15.55;21.58;101037.50;5025670;28;20060;-73
2022/04/03 11:31:30;;;;;;;3.15;1.30;;;;;;;17.78;21.23;101029.25;5045077;28;20123;-73